Historyczne dane pomiarowe

Dodano dane terminowe – wersja testowa.

Dane z okresu 1951-2019

Wersja bazy: 1.34 [2019-03-16, lista zmian], aktualizacja planowana na 2019-04-15

Dane meteo z obszaru Polski uzyskane na podstawie danych udostępnionych przez Instytut Meteorologii i Gospodarki Wodnej – Państwowy Instytut Badawczy.

 

Wybierz Datę:    

       

TemperaturaWilgotnośćWiatrCiśnienieOpadyŚniegCzas trwania zjawisk
 Stacja t tx tn tng RH VA  wxwx mslp ppp RRR   cm mm wxwxwxwxwxwxwx
1987-08-14 13.2 16.3 9.3 7.2 90.8- 8.0 1.0---- 38.7------------
1987-08-13 13.3 19.3 7.5 5.1 83.0- 2.7 0.7---- 0.0------------
1987-08-12 12.3 16.0 8.0 6.5 84.8- 5.0 1.3---- 1.2------------
1987-08-11 12.7 14.8 11.1 10.4 88.0- 6.0 0.0---- 10.0------------
1987-08-10 13.6 17.1 11.0 9.6 84.3- 6.3 0.7---- 0.0------------
1987-08-09 14.4 18.4 11.2 8.8 83.0- 5.0 1.0---- 2.1------------
1987-08-08 13.2 18.6 7.5 4.8 74.8- 3.3 1.3---- 0.0------------
1987-08-07 13.2 18.6 7.5 4.8 74.8- 3.3 1.3---- 0.0------------
1987-08-06 12.0 15.2 9.3 6.9 91.5- 6.3 1.7---- 10.8------------
1987-08-05 11.9 14.3 10.2 9.2 92.0- 7.3 1.7---- 20.7------------
1987-08-04 12.2 15.9 10.3 8.0 83.0- 6.3 1.3---- 14.8------------
1987-08-03 12.6 16.2 10.8 9.0 87.0- 6.0 1.3---- 1.7------------
1987-08-02 12.0 15.0 9.6 8.3 83.8- 5.3 2.7---- 14.4------------
1987-08-01 14.0 17.8 12.3 11.9 86.0- 6.0 2.3---- 5.3------------
1987-07-31 14.8 18.6 12.2 10.2 90.8- 4.0 3.0---- 0.0------------
1987-07-30 15.8 21.4 11.1 8.2 76.0- 2.0 0.7---- 4.1------------
1987-07-29 12.4 17.7 7.6 6.6 93.0- 4.3 1.0---- 0.0------------
1987-07-28 14.1 17.4 10.8 10.0 87.3- 4.0 2.3---- 4.3------------
1987-07-27 11.5 14.1 9.7 8.8 89.3- 8.0 2.7---- 5.2------------
1987-07-26 11.4 15.7 9.1 7.5 83.0- 4.7 2.3---- 13.7------------
1987-07-25 13.7 17.1 11.5 11.4 87.0- 5.7 2.3---- 0.6------------
1987-07-24 16.7 19.9 13.9 11.1 92.0- 5.7 1.7---- 7.3------------
1987-07-23 17.1 22.4 14.0 9.0 90.5- 7.0 0.0---- 1.2------------
1987-07-22 16.4 21.5 13.2 13.1 91.5- 6.0 0.0---- 0.0------------
1987-07-21 15.8 22.7 9.5 8.1 87.3- 4.0 0.3---- 0.0------------
1987-07-20 15.5 18.5 8.8 8.5 94.8- 6.7 1.0---- 1.7------------
1987-07-19 17.0 20.6 11.8 10.0 90.3- 8.0 1.7---- 22.1------------
1987-07-18 19.0 22.1 15.4 9.7 77.3- 6.7 2.0---- 0.0------------
1987-07-17 18.5 22.9 12.4 11.1 74.5- 5.0 3.7---- 0.0------------
1987-07-16 17.4 23.3 10.8 8.8 74.3- 6.0 1.3---- 0.0------------
1987-07-15 16.0 21.5 8.6 6.3 71.3- 5.3 1.0---- 0.0------------
1987-07-14 15.7 19.5 7.0 5.5 76.8- 2.7 1.0---- 0.0------------
1987-07-13 14.1 16.1 12.9 11.4 94.5- 6.0 4.0---- 0.0------------
1987-07-12 15.6 19.6 9.3 7.3 98.0- 5.3 2.3---- 9.7------------
1987-07-11 12.3 15.4 9.6 9.1 95.5- 6.0 1.3---- 4.3------------
1987-07-10 12.4 16.2 8.2 7.6 83.8- 2.3 3.7---- 0.7------------
1987-07-09 15.1 21.5 11.9 10.2 83.3- 3.0 3.3---- 3.0------------
1987-07-08 20.0 28.1 12.2 11.1 77.0- 0.7 1.3---- 0.0------------
1987-07-07 20.2 28.2 12.2 8.6 58.8- 0.3 0.7---- 0.0------------
1987-07-06 16.5 22.8 6.1 4.2 61.0- 0.7 1.3---- 0.0------------
1987-07-05 14.2 19.7 8.2 7.3 65.0- 0.3 1.3---- 0.0------------
1987-07-04 12.4 30.2 6.4 5.8 86.5- 0.3 1.0---- 0.0------------
1987-07-03 14.2 20.0 6.8 5.3 80.8- 0.3 1.0---- 0.0------------
1987-07-02 14.4 19.0 8.5 7.7 85.5- 1.3 2.3---- 0.0------------
1987-07-01 18.5 27.1 13.9 12.8 91.0- 3.3 1.3---- 0.0------------
1987-06-30 23.4 31.4 14.9 13.0 84.8- 0.7 0.7---- 4.7------------
1987-06-29 16.2 21.9 9.1 6.9 93.3- 3.0 1.0---- 0.0------------
1987-06-28 13.0 16.9 10.0 9.6 83.3- 2.0 1.3---- 0.9------------
1987-06-27 14.0 18.8 11.0 10.4 81.0- 2.3 0.7---- 13.0------------
1987-06-26 14.5 19.9 7.3 4.2 71.3- 2.3 2.3---- 0.0------------
1987-06-25 10.8 14.6 5.4 2.7 81.8- 2.7 2.7---- 0.0------------
1987-06-24 12.5 14.6 11.0 10.1 87.8- 4.0 2.0---- 0.0------------
1987-06-23 13.9 19.4 8.7 7.5 86.0- 1.3 0.3---- 7.7------------
1987-06-22 12.5 17.2 10.8 10.0 95.8- 3.3 1.7---- 0.0------------
1987-06-21 16.1 23.6 12.0 9.8 79.5- 2.0 1.0---- 5.3------------
1987-06-20 15.7 21.3 7.6 4.5 63.5- 1.3 1.3---- 0.0------------
1987-06-19 10.2 12.9 8.2 7.4 92.8- 6.3 0.7---- 0.8------------
1987-06-18 11.8 20.1 6.0 4.2 76.5- 0.3 2.0---- 4.2------------
1987-06-17 11.2 15.0 9.3 8.5 76.3- 3.7 2.7---- 0.0------------
1987-06-16 10.2 13.1 8.0 7.0 96.0- 4.7 6.0---- 0.0------------
567.7 ms

 

Źródłem pochodzenia danych jest Instytut Meteorologii i Gospodarki Wodnej – Państwowy Instytut Badawczy. Dane Instytutu Meteorologii i Gospodarki Wodnej – Państwowego Instytutu Badawczego zostały przetworzone.

Dane źródłowe można odnaleźć na stronie https://dane.imgw.pl